sensor_id;sensor_type;location;lat;lon;timestamp;temperature;humidity
2783;DHT22;1399;47.072;15.452;2023-01-16T00:01:12;10.80;56.10
2783;DHT22;1399;47.072;15.452;2023-01-16T00:03:38;10.80;56.10
2783;DHT22;1399;47.072;15.452;2023-01-16T00:06:04;10.80;56.00
2783;DHT22;1399;47.072;15.452;2023-01-16T00:08:30;10.80;56.00
2783;DHT22;1399;47.072;15.452;2023-01-16T00:10:56;10.80;56.00
2783;DHT22;1399;47.072;15.452;2023-01-16T00:13:25;10.80;56.00
2783;DHT22;1399;47.072;15.452;2023-01-16T00:15:51;10.80;56.00
2783;DHT22;1399;47.072;15.452;2023-01-16T00:18:17;10.80;56.00
2783;DHT22;1399;47.072;15.452;2023-01-16T00:20:43;10.80;56.00
2783;DHT22;1399;47.072;15.452;2023-01-16T00:23:12;10.80;56.00
2783;DHT22;1399;47.072;15.452;2023-01-16T00:25:39;10.80;56.00
2783;DHT22;1399;47.072;15.452;2023-01-16T00:28:07;10.80;56.00
2783;DHT22;1399;47.072;15.452;2023-01-16T00:30:33;10.80;55.90
2783;DHT22;1399;47.072;15.452;2023-01-16T00:32:59;10.80;56.00
2783;DHT22;1399;47.072;15.452;2023-01-16T00:35:24;10.80;56.00
2783;DHT22;1399;47.072;15.452;2023-01-16T00:37:52;10.80;56.00
2783;DHT22;1399;47.072;15.452;2023-01-16T00:40:18;10.80;56.00
2783;DHT22;1399;47.072;15.452;2023-01-16T00:42:44;10.80;55.90
2783;DHT22;1399;47.072;15.452;2023-01-16T00:45:10;10.80;55.90
2783;DHT22;1399;47.072;15.452;2023-01-16T00:47:35;10.80;55.90
2783;DHT22;1399;47.072;15.452;2023-01-16T00:50:01;10.80;55.90
2783;DHT22;1399;47.072;15.452;2023-01-16T00:52:27;10.80;56.00
2783;DHT22;1399;47.072;15.452;2023-01-16T00:54:53;10.80;56.00
2783;DHT22;1399;47.072;15.452;2023-01-16T00:57:18;10.80;56.10
2783;DHT22;1399;47.072;15.452;2023-01-16T00:59:44;10.80;56.10
2783;DHT22;1399;47.072;15.452;2023-01-16T01:02:10;10.80;56.30
2783;DHT22;1399;47.072;15.452;2023-01-16T01:04:36;10.70;56.30
2783;DHT22;1399;47.072;15.452;2023-01-16T01:07:02;10.70;56.30
2783;DHT22;1399;47.072;15.452;2023-01-16T01:09:27;10.70;56.40
2783;DHT22;1399;47.072;15.452;2023-01-16T01:11:55;10.70;56.50
2783;DHT22;1399;47.072;15.452;2023-01-16T01:14:21;10.70;56.50
2783;DHT22;1399;47.072;15.452;2023-01-16T01:16:46;10.70;56.50
2783;DHT22;1399;47.072;15.452;2023-01-16T01:19:12;10.70;56.60
2783;DHT22;1399;47.072;15.452;2023-01-16T01:21:38;10.70;56.70
2783;DHT22;1399;47.072;15.452;2023-01-16T01:24:03;10.70;56.80
2783;DHT22;1399;47.072;15.452;2023-01-16T01:26:29;10.70;56.80
2783;DHT22;1399;47.072;15.452;2023-01-16T01:28:55;10.70;56.80
2783;DHT22;1399;47.072;15.452;2023-01-16T01:31:21;10.70;56.80
2783;DHT22;1399;47.072;15.452;2023-01-16T01:33:46;10.70;56.80
2783;DHT22;1399;47.072;15.452;2023-01-16T01:36:12;10.70;56.90
2783;DHT22;1399;47.072;15.452;2023-01-16T01:38:38;10.70;57.00
2783;DHT22;1399;47.072;15.452;2023-01-16T01:41:03;10.70;57.00
2783;DHT22;1399;47.072;15.452;2023-01-16T01:43:50;10.70;57.10
2783;DHT22;1399;47.072;15.452;2023-01-16T01:46:25;10.70;57.10
2783;DHT22;1399;47.072;15.452;2023-01-16T01:48:56;10.60;57.10
2783;DHT22;1399;47.072;15.452;2023-01-16T01:51:27;10.60;57.20
2783;DHT22;1399;47.072;15.452;2023-01-16T01:53:59;10.60;57.20
2783;DHT22;1399;47.072;15.452;2023-01-16T01:56:36;10.60;57.20
2783;DHT22;1399;47.072;15.452;2023-01-16T01:59:07;10.60;57.20
2783;DHT22;1399;47.072;15.452;2023-01-16T02:01:33;10.60;57.30
2783;DHT22;1399;47.072;15.452;2023-01-16T02:04:03;10.60;57.40
2783;DHT22;1399;47.072;15.452;2023-01-16T02:06:45;10.60;57.40
2783;DHT22;1399;47.072;15.452;2023-01-16T02:09:13;10.60;57.40
2783;DHT22;1399;47.072;15.452;2023-01-16T02:11:50;10.60;57.50
2783;DHT22;1399;47.072;15.452;2023-01-16T02:14:17;10.60;57.50
2783;DHT22;1399;47.072;15.452;2023-01-16T02:16:45;10.60;57.50
2783;DHT22;1399;47.072;15.452;2023-01-16T02:20:00;10.60;57.50
2783;DHT22;1399;47.072;15.452;2023-01-16T02:39:13;10.50;57.30
2783;DHT22;1399;47.072;15.452;2023-01-16T02:41:57;10.50;57.20
2783;DHT22;1399;47.072;15.452;2023-01-16T02:47:22;10.50;57.20
2783;DHT22;1399;47.072;15.452;2023-01-16T02:53:52;10.40;57.00
2783;DHT22;1399;47.072;15.452;2023-01-16T02:55:50;10.40;57.00
2783;DHT22;1399;47.072;15.452;2023-01-16T02:58:19;10.40;57.00
2783;DHT22;1399;47.072;15.452;2023-01-16T03:00:57;10.40;57.10
2783;DHT22;1399;47.072;15.452;2023-01-16T03:03:46;10.40;57.20
2783;DHT22;1399;47.072;15.452;2023-01-16T03:11:29;10.30;57.20
2783;DHT22;1399;47.072;15.452;2023-01-16T03:16:47;10.30;57.10
2783;DHT22;1399;47.072;15.452;2023-01-16T03:22:43;10.30;57.10
2783;DHT22;1399;47.072;15.452;2023-01-16T03:25:32;10.30;57.70
2783;DHT22;1399;47.072;15.452;2023-01-16T03:30:48;10.30;57.10
2783;DHT22;1399;47.072;15.452;2023-01-16T03:36:18;10.20;56.90
2783;DHT22;1399;47.072;15.452;2023-01-16T03:38:47;10.20;56.90
2783;DHT22;1399;47.072;15.452;2023-01-16T03:41:18;10.20;56.90
2783;DHT22;1399;47.072;15.452;2023-01-16T03:43:49;10.20;56.90
2783;DHT22;1399;47.072;15.452;2023-01-16T03:46:19;10.20;56.90
2783;DHT22;1399;47.072;15.452;2023-01-16T03:49:08;10.20;56.90
2783;DHT22;1399;47.072;15.452;2023-01-16T03:51:44;10.20;56.80
2783;DHT22;1399;47.072;15.452;2023-01-16T03:56:55;10.20;56.80
2783;DHT22;1399;47.072;15.452;2023-01-16T03:59:22;10.10;56.70
2783;DHT22;1399;47.072;15.452;2023-01-16T04:01:55;10.10;56.70
2783;DHT22;1399;47.072;15.452;2023-01-16T04:04:40;10.10;56.70
2783;DHT22;1399;47.072;15.452;2023-01-16T04:07:29;10.10;56.70
2783;DHT22;1399;47.072;15.452;2023-01-16T04:10:02;10.10;57.30
2783;DHT22;1399;47.072;15.452;2023-01-16T04:12:33;10.10;56.60
2783;DHT22;1399;47.072;15.452;2023-01-16T04:15:03;10.10;56.50
2783;DHT22;1399;47.072;15.452;2023-01-16T04:17:30;10.10;56.40
2783;DHT22;1399;47.072;15.452;2023-01-16T04:19:56;10.10;56.40
2783;DHT22;1399;47.072;15.452;2023-01-16T04:22:24;10.00;56.30
2783;DHT22;1399;47.072;15.452;2023-01-16T04:24:51;10.00;56.20
2783;DHT22;1399;47.072;15.452;2023-01-16T04:27:18;10.00;56.10
2783;DHT22;1399;47.072;15.452;2023-01-16T04:29:44;10.00;56.10
2783;DHT22;1399;47.072;15.452;2023-01-16T04:32:10;10.00;56.00
2783;DHT22;1399;47.072;15.452;2023-01-16T04:34:36;10.00;55.90
2783;DHT22;1399;47.072;15.452;2023-01-16T04:37:02;9.90;56.60
2783;DHT22;1399;47.072;15.452;2023-01-16T04:39:27;9.90;56.60
2783;DHT22;1399;47.072;15.452;2023-01-16T04:41:53;9.90;56.50
2783;DHT22;1399;47.072;15.452;2023-01-16T04:44:19;9.90;56.50
2783;DHT22;1399;47.072;15.452;2023-01-16T04:46:45;9.90;56.40
2783;DHT22;1399;47.072;15.452;2023-01-16T04:49:11;9.80;56.30
2783;DHT22;1399;47.072;15.452;2023-01-16T04:51:37;9.80;56.30
2783;DHT22;1399;47.072;15.452;2023-01-16T04:54:04;9.80;56.10
2783;DHT22;1399;47.072;15.452;2023-01-16T04:56:31;9.80;56.10
2783;DHT22;1399;47.072;15.452;2023-01-16T04:58:57;9.70;56.00
2783;DHT22;1399;47.072;15.452;2023-01-16T05:01:22;9.80;56.00
2783;DHT22;1399;47.072;15.452;2023-01-16T05:03:48;9.70;55.90
2783;DHT22;1399;47.072;15.452;2023-01-16T05:06:14;9.70;55.90
2783;DHT22;1399;47.072;15.452;2023-01-16T05:08:40;9.70;56.00
2783;DHT22;1399;47.072;15.452;2023-01-16T05:11:06;9.70;56.00
2783;DHT22;1399;47.072;15.452;2023-01-16T05:13:32;9.70;55.90
2783;DHT22;1399;47.072;15.452;2023-01-16T05:15:57;9.70;55.90
2783;DHT22;1399;47.072;15.452;2023-01-16T05:18:24;9.60;55.90
2783;DHT22;1399;47.072;15.452;2023-01-16T05:20:49;9.60;55.80
2783;DHT22;1399;47.072;15.452;2023-01-16T05:23:15;9.60;55.80
2783;DHT22;1399;47.072;15.452;2023-01-16T05:25:42;9.60;55.80
2783;DHT22;1399;47.072;15.452;2023-01-16T05:28:08;9.60;55.70
2783;DHT22;1399;47.072;15.452;2023-01-16T05:30:34;9.50;55.50
2783;DHT22;1399;47.072;15.452;2023-01-16T05:32:59;9.50;55.60
2783;DHT22;1399;47.072;15.452;2023-01-16T05:35:27;9.60;55.80
2783;DHT22;1399;47.072;15.452;2023-01-16T05:37:53;9.50;55.80
2783;DHT22;1399;47.072;15.452;2023-01-16T05:40:18;9.50;55.80
2783;DHT22;1399;47.072;15.452;2023-01-16T05:42:44;9.50;55.80
2783;DHT22;1399;47.072;15.452;2023-01-16T05:45:11;9.50;55.80
2783;DHT22;1399;47.072;15.452;2023-01-16T05:47:37;9.50;55.80
2783;DHT22;1399;47.072;15.452;2023-01-16T05:50:03;9.50;55.80
2783;DHT22;1399;47.072;15.452;2023-01-16T05:52:29;9.50;55.80
2783;DHT22;1399;47.072;15.452;2023-01-16T05:54:55;9.40;55.70
2783;DHT22;1399;47.072;15.452;2023-01-16T05:57:21;9.40;55.70
2783;DHT22;1399;47.072;15.452;2023-01-16T05:59:51;9.40;55.70
2783;DHT22;1399;47.072;15.452;2023-01-16T06:02:18;9.40;55.80
2783;DHT22;1399;47.072;15.452;2023-01-16T06:04:44;9.40;55.80
2783;DHT22;1399;47.072;15.452;2023-01-16T06:07:10;9.40;55.70
2783;DHT22;1399;47.072;15.452;2023-01-16T06:09:36;9.40;55.80
2783;DHT22;1399;47.072;15.452;2023-01-16T06:12:01;9.40;55.80
2783;DHT22;1399;47.072;15.452;2023-01-16T06:14:27;9.40;55.80
2783;DHT22;1399;47.072;15.452;2023-01-16T06:16:53;9.40;55.80
2783;DHT22;1399;47.072;15.452;2023-01-16T06:19:18;9.40;55.80
2783;DHT22;1399;47.072;15.452;2023-01-16T06:21:44;9.40;55.80
2783;DHT22;1399;47.072;15.452;2023-01-16T06:24:10;9.40;55.90
2783;DHT22;1399;47.072;15.452;2023-01-16T06:26:36;9.40;55.80
2783;DHT22;1399;47.072;15.452;2023-01-16T06:29:01;9.40;55.80
2783;DHT22;1399;47.072;15.452;2023-01-16T06:31:27;9.40;55.80
2783;DHT22;1399;47.072;15.452;2023-01-16T06:33:53;9.40;55.80
2783;DHT22;1399;47.072;15.452;2023-01-16T06:36:19;9.30;55.70
2783;DHT22;1399;47.072;15.452;2023-01-16T06:38:45;9.30;55.80
2783;DHT22;1399;47.072;15.452;2023-01-16T06:41:11;9.30;55.80
2783;DHT22;1399;47.072;15.452;2023-01-16T06:43:36;9.30;55.90
2783;DHT22;1399;47.072;15.452;2023-01-16T06:46:03;9.30;55.90
2783;DHT22;1399;47.072;15.452;2023-01-16T06:48:28;9.40;56.10
2783;DHT22;1399;47.072;15.452;2023-01-16T06:50:54;9.40;56.10
2783;DHT22;1399;47.072;15.452;2023-01-16T06:53:20;9.40;56.10
2783;DHT22;1399;47.072;15.452;2023-01-16T06:55:46;9.40;56.20
2783;DHT22;1399;47.072;15.452;2023-01-16T06:58:12;9.40;56.20
2783;DHT22;1399;47.072;15.452;2023-01-16T07:00:37;9.30;56.10
2783;DHT22;1399;47.072;15.452;2023-01-16T07:03:04;9.40;56.20
2783;DHT22;1399;47.072;15.452;2023-01-16T07:05:30;9.30;56.20
2783;DHT22;1399;47.072;15.452;2023-01-16T07:07:57;9.40;56.30
2783;DHT22;1399;47.072;15.452;2023-01-16T07:10:23;9.40;56.30
2783;DHT22;1399;47.072;15.452;2023-01-16T07:12:50;9.40;56.30
2783;DHT22;1399;47.072;15.452;2023-01-16T07:15:17;9.40;56.30
2783;DHT22;1399;47.072;15.452;2023-01-16T07:18:02;9.40;56.30
2783;DHT22;1399;47.072;15.452;2023-01-16T07:20:57;9.40;56.30
2783;DHT22;1399;47.072;15.452;2023-01-16T07:23:56;9.40;56.20
2783;DHT22;1399;47.072;15.452;2023-01-16T07:26:23;9.40;56.20
2783;DHT22;1399;47.072;15.452;2023-01-16T07:28:51;9.40;56.10
2783;DHT22;1399;47.072;15.452;2023-01-16T07:31:17;9.40;56.10
2783;DHT22;1399;47.072;15.452;2023-01-16T07:33:43;9.40;56.10
2783;DHT22;1399;47.072;15.452;2023-01-16T07:36:09;9.40;56.10
2783;DHT22;1399;47.072;15.452;2023-01-16T07:38:35;9.40;56.20
2783;DHT22;1399;47.072;15.452;2023-01-16T07:41:00;9.40;56.20
2783;DHT22;1399;47.072;15.452;2023-01-16T07:43:26;9.40;56.30
2783;DHT22;1399;47.072;15.452;2023-01-16T07:45:52;9.40;56.30
2783;DHT22;1399;47.072;15.452;2023-01-16T07:48:19;9.40;56.30
2783;DHT22;1399;47.072;15.452;2023-01-16T07:50:53;9.40;56.30
2783;DHT22;1399;47.072;15.452;2023-01-16T07:53:20;9.40;56.30
2783;DHT22;1399;47.072;15.452;2023-01-16T07:55:59;9.40;56.30
2783;DHT22;1399;47.072;15.452;2023-01-16T07:58:26;9.40;56.30
2783;DHT22;1399;47.072;15.452;2023-01-16T08:00:53;9.50;56.40
2783;DHT22;1399;47.072;15.452;2023-01-16T08:03:19;9.40;56.30
2783;DHT22;1399;47.072;15.452;2023-01-16T08:05:45;9.50;56.40
2783;DHT22;1399;47.072;15.452;2023-01-16T08:08:12;9.50;56.50
2783;DHT22;1399;47.072;15.452;2023-01-16T08:10:38;9.50;56.50
2783;DHT22;1399;47.072;15.452;2023-01-16T08:13:04;9.50;56.50
2783;DHT22;1399;47.072;15.452;2023-01-16T08:15:30;9.50;56.60
2783;DHT22;1399;47.072;15.452;2023-01-16T08:17:56;9.60;56.60
2783;DHT22;1399;47.072;15.452;2023-01-16T08:20:22;9.60;56.60
2783;DHT22;1399;47.072;15.452;2023-01-16T08:22:49;9.60;56.60
2783;DHT22;1399;47.072;15.452;2023-01-16T08:25:17;9.60;56.60
2783;DHT22;1399;47.072;15.452;2023-01-16T08:27:43;9.60;56.60
2783;DHT22;1399;47.072;15.452;2023-01-16T08:30:10;9.60;56.60
2783;DHT22;1399;47.072;15.452;2023-01-16T08:32:36;9.60;56.60
2783;DHT22;1399;47.072;15.452;2023-01-16T08:35:03;9.60;56.70
2783;DHT22;1399;47.072;15.452;2023-01-16T08:37:32;9.60;56.60
2783;DHT22;1399;47.072;15.452;2023-01-16T08:39:58;9.60;56.60
2783;DHT22;1399;47.072;15.452;2023-01-16T08:42:24;9.60;56.60
2783;DHT22;1399;47.072;15.452;2023-01-16T08:45:12;9.60;56.60
2783;DHT22;1399;47.072;15.452;2023-01-16T08:47:57;9.60;56.60
2783;DHT22;1399;47.072;15.452;2023-01-16T08:50:43;9.60;56.50
2783;DHT22;1399;47.072;15.452;2023-01-16T08:53:27;9.60;56.50
2783;DHT22;1399;47.072;15.452;2023-01-16T08:55:53;9.60;56.40
2783;DHT22;1399;47.072;15.452;2023-01-16T08:58:19;9.60;56.50
2783;DHT22;1399;47.072;15.452;2023-01-16T09:00:48;9.60;56.50
2783;DHT22;1399;47.072;15.452;2023-01-16T09:03:14;9.60;56.50
2783;DHT22;1399;47.072;15.452;2023-01-16T09:05:42;9.60;56.50
2783;DHT22;1399;47.072;15.452;2023-01-16T09:08:08;9.70;56.60
2783;DHT22;1399;47.072;15.452;2023-01-16T09:10:34;9.70;56.60
2783;DHT22;1399;47.072;15.452;2023-01-16T09:13:00;9.60;56.50
2783;DHT22;1399;47.072;15.452;2023-01-16T09:15:44;9.60;56.50
2783;DHT22;1399;47.072;15.452;2023-01-16T09:18:10;9.60;56.40
2783;DHT22;1399;47.072;15.452;2023-01-16T09:20:37;9.60;56.50
2783;DHT22;1399;47.072;15.452;2023-01-16T09:23:04;9.70;56.60
2783;DHT22;1399;47.072;15.452;2023-01-16T09:25:30;9.70;56.60
2783;DHT22;1399;47.072;15.452;2023-01-16T09:27:57;9.70;56.50
2783;DHT22;1399;47.072;15.452;2023-01-16T09:30:24;9.70;56.60
2783;DHT22;1399;47.072;15.452;2023-01-16T09:32:49;9.70;56.60
2783;DHT22;1399;47.072;15.452;2023-01-16T09:35:15;9.80;56.60
2783;DHT22;1399;47.072;15.452;2023-01-16T09:37:45;9.80;56.60
2783;DHT22;1399;47.072;15.452;2023-01-16T09:40:16;9.80;56.60
2783;DHT22;1399;47.072;15.452;2023-01-16T09:45:31;9.80;56.60
2783;DHT22;1399;47.072;15.452;2023-01-16T09:48:14;9.80;56.60
2783;DHT22;1399;47.072;15.452;2023-01-16T09:53:16;9.80;56.60
2783;DHT22;1399;47.072;15.452;2023-01-16T09:56:03;9.80;56.50
2783;DHT22;1399;47.072;15.452;2023-01-16T09:59:12;9.80;56.50
2783;DHT22;1399;47.072;15.452;2023-01-16T10:01:43;9.80;56.50
2783;DHT22;1399;47.072;15.452;2023-01-16T10:04:22;9.80;56.60
2783;DHT22;1399;47.072;15.452;2023-01-16T10:09:56;9.90;56.60
2783;DHT22;1399;47.072;15.452;2023-01-16T10:12:31;9.90;56.60
2783;DHT22;1399;47.072;15.452;2023-01-16T10:17:49;9.90;56.50
2783;DHT22;1399;47.072;15.452;2023-01-16T10:26:10;9.90;56.40
2783;DHT22;1399;47.072;15.452;2023-01-16T10:31:20;9.90;56.40
2783;DHT22;1399;47.072;15.452;2023-01-16T10:33:59;9.90;56.50
2783;DHT22;1399;47.072;15.452;2023-01-16T10:36:39;9.90;56.50
2783;DHT22;1399;47.072;15.452;2023-01-16T10:39:08;10.00;55.60
2783;DHT22;1399;47.072;15.452;2023-01-16T10:41:38;10.00;55.60
2783;DHT22;1399;47.072;15.452;2023-01-16T10:47:14;10.00;55.60
2783;DHT22;1399;47.072;15.452;2023-01-16T10:49:59;10.00;55.60
2783;DHT22;1399;47.072;15.452;2023-01-16T10:52:26;10.00;55.50
2783;DHT22;1399;47.072;15.452;2023-01-16T10:54:53;10.00;55.50
2783;DHT22;1399;47.072;15.452;2023-01-16T10:57:20;10.00;55.50
2783;DHT22;1399;47.072;15.452;2023-01-16T10:59:49;10.00;55.40
2783;DHT22;1399;47.072;15.452;2023-01-16T11:02:38;10.10;55.20
2783;DHT22;1399;47.072;15.452;2023-01-16T11:05:30;10.10;55.20
2783;DHT22;1399;47.072;15.452;2023-01-16T11:08:12;10.10;55.00
2783;DHT22;1399;47.072;15.452;2023-01-16T11:10:39;10.20;54.90
2783;DHT22;1399;47.072;15.452;2023-01-16T11:13:07;10.20;54.80
2783;DHT22;1399;47.072;15.452;2023-01-16T11:16:18;10.20;54.80
2783;DHT22;1399;47.072;15.452;2023-01-16T11:19:21;10.20;54.80
2783;DHT22;1399;47.072;15.452;2023-01-16T11:21:57;10.20;54.80
2783;DHT22;1399;47.072;15.452;2023-01-16T11:24:35;10.20;54.80
2783;DHT22;1399;47.072;15.452;2023-01-16T11:27:05;10.20;54.80
2783;DHT22;1399;47.072;15.452;2023-01-16T11:29:39;10.20;54.80
2783;DHT22;1399;47.072;15.452;2023-01-16T11:32:11;10.20;54.80
2783;DHT22;1399;47.072;15.452;2023-01-16T11:34:43;10.20;54.80
2783;DHT22;1399;47.072;15.452;2023-01-16T11:37:12;10.20;54.80
2783;DHT22;1399;47.072;15.452;2023-01-16T11:39:39;10.20;54.80
2783;DHT22;1399;47.072;15.452;2023-01-16T11:42:10;10.20;54.80
2783;DHT22;1399;47.072;15.452;2023-01-16T11:44:56;10.20;54.90
2783;DHT22;1399;47.072;15.452;2023-01-16T11:47:44;10.20;54.80
2783;DHT22;1399;47.072;15.452;2023-01-16T11:50:39;10.20;54.80
2783;DHT22;1399;47.072;15.452;2023-01-16T11:53:05;10.20;54.80
2783;DHT22;1399;47.072;15.452;2023-01-16T11:55:39;10.20;54.80
2783;DHT22;1399;47.072;15.452;2023-01-16T11:58:32;10.20;54.90
2783;DHT22;1399;47.072;15.452;2023-01-16T12:04:00;10.20;54.90
2783;DHT22;1399;47.072;15.452;2023-01-16T12:06:38;10.20;55.00
2783;DHT22;1399;47.072;15.452;2023-01-16T12:14:43;10.20;55.20
2783;DHT22;1399;47.072;15.452;2023-01-16T12:31:12;10.30;55.50
2783;DHT22;1399;47.072;15.452;2023-01-16T12:34:32;10.30;55.50
2783;DHT22;1399;47.072;15.452;2023-01-16T12:48:19;10.40;55.40
2783;DHT22;1399;47.072;15.452;2023-01-16T12:59:28;10.50;55.00
2783;DHT22;1399;47.072;15.452;2023-01-16T13:05:01;10.60;54.90
2783;DHT22;1399;47.072;15.452;2023-01-16T13:07:33;10.60;54.80
2783;DHT22;1399;47.072;15.452;2023-01-16T13:10:13;10.60;54.70
2783;DHT22;1399;47.072;15.452;2023-01-16T13:13:00;10.60;54.60
2783;DHT22;1399;47.072;15.452;2023-01-16T13:15:47;10.60;54.60
2783;DHT22;1399;47.072;15.452;2023-01-16T13:20:51;10.70;54.70
2783;DHT22;1399;47.072;15.452;2023-01-16T13:23:23;10.70;55.40
2783;DHT22;1399;47.072;15.452;2023-01-16T13:25:58;10.70;54.80
2783;DHT22;1399;47.072;15.452;2023-01-16T13:31:30;10.60;54.80
2783;DHT22;1399;47.072;15.452;2023-01-16T13:37:32;10.60;54.80
2783;DHT22;1399;47.072;15.452;2023-01-16T13:42:35;10.60;54.80
2783;DHT22;1399;47.072;15.452;2023-01-16T13:45:07;10.60;54.90
2783;DHT22;1399;47.072;15.452;2023-01-16T13:47:58;10.60;54.80
2783;DHT22;1399;47.072;15.452;2023-01-16T13:50:27;10.60;54.80
2783;DHT22;1399;47.072;15.452;2023-01-16T13:52:56;10.60;54.70
2783;DHT22;1399;47.072;15.452;2023-01-16T13:55:29;10.60;54.70
2783;DHT22;1399;47.072;15.452;2023-01-16T13:58:05;10.70;54.80
2783;DHT22;1399;47.072;15.452;2023-01-16T14:00:32;10.60;54.80
2783;DHT22;1399;47.072;15.452;2023-01-16T14:03:16;10.60;54.80
2783;DHT22;1399;47.072;15.452;2023-01-16T14:05:47;10.60;54.70
2783;DHT22;1399;47.072;15.452;2023-01-16T14:11:58;10.60;54.80
2783;DHT22;1399;47.072;15.452;2023-01-16T14:17:29;10.60;54.70
2783;DHT22;1399;47.072;15.452;2023-01-16T14:20:43;10.60;54.80
2783;DHT22;1399;47.072;15.452;2023-01-16T14:23:34;10.50;54.80
2783;DHT22;1399;47.072;15.452;2023-01-16T14:26:46;10.60;54.90
2783;DHT22;1399;47.072;15.452;2023-01-16T14:29:16;10.50;54.80
2783;DHT22;1399;47.072;15.452;2023-01-16T14:34:33;10.50;54.70
2783;DHT22;1399;47.072;15.452;2023-01-16T14:39:50;10.50;54.80
2783;DHT22;1399;47.072;15.452;2023-01-16T14:48:09;10.40;55.00
2783;DHT22;1399;47.072;15.452;2023-01-16T14:54:08;10.40;55.20
2783;DHT22;1399;47.072;15.452;2023-01-16T14:57:00;10.40;55.20
2783;DHT22;1399;47.072;15.452;2023-01-16T14:59:36;10.40;55.20
2783;DHT22;1399;47.072;15.452;2023-01-16T15:05:06;10.40;55.20
2783;DHT22;1399;47.072;15.452;2023-01-16T15:10:16;10.30;55.10
2783;DHT22;1399;47.072;15.452;2023-01-16T15:12:44;10.30;55.10
2783;DHT22;1399;47.072;15.452;2023-01-16T15:15:25;10.30;55.10
2783;DHT22;1399;47.072;15.452;2023-01-16T15:17:54;10.30;55.10
2783;DHT22;1399;47.072;15.452;2023-01-16T15:20:41;10.30;55.10
2783;DHT22;1399;47.072;15.452;2023-01-16T15:23:34;10.30;55.10
2783;DHT22;1399;47.072;15.452;2023-01-16T15:28:52;10.20;55.00
2783;DHT22;1399;47.072;15.452;2023-01-16T15:31:35;10.20;55.10
2783;DHT22;1399;47.072;15.452;2023-01-16T15:34:23;10.20;55.00
2783;DHT22;1399;47.072;15.452;2023-01-16T15:36:51;10.20;55.10
2783;DHT22;1399;47.072;15.452;2023-01-16T15:42:07;10.10;55.10
2783;DHT22;1399;47.072;15.452;2023-01-16T15:44:57;10.10;55.10
2783;DHT22;1399;47.072;15.452;2023-01-16T15:47:54;10.10;55.20
2783;DHT22;1399;47.072;15.452;2023-01-16T15:53:07;10.10;55.10
2783;DHT22;1399;47.072;15.452;2023-01-16T15:55:43;10.10;55.10
2783;DHT22;1399;47.072;15.452;2023-01-16T15:58:22;10.10;55.10
2783;DHT22;1399;47.072;15.452;2023-01-16T16:01:00;10.10;55.10
2783;DHT22;1399;47.072;15.452;2023-01-16T16:03:43;10.00;55.00
2783;DHT22;1399;47.072;15.452;2023-01-16T16:06:13;10.00;55.80
2783;DHT22;1399;47.072;15.452;2023-01-16T16:08:45;10.00;55.10
2783;DHT22;1399;47.072;15.452;2023-01-16T16:11:32;10.00;55.10
2783;DHT22;1399;47.072;15.452;2023-01-16T16:17:36;10.00;55.10
2783;DHT22;1399;47.072;15.452;2023-01-16T16:20:42;10.00;55.10
2783;DHT22;1399;47.072;15.452;2023-01-16T16:26:04;9.90;55.90
2783;DHT22;1399;47.072;15.452;2023-01-16T16:33:39;9.90;55.90
2783;DHT22;1399;47.072;15.452;2023-01-16T16:36:05;9.90;55.80
2783;DHT22;1399;47.072;15.452;2023-01-16T16:38:46;9.90;55.80
2783;DHT22;1399;47.072;15.452;2023-01-16T16:46:30;9.80;55.40
2783;DHT22;1399;47.072;15.452;2023-01-16T16:51:35;9.80;55.70
2783;DHT22;1399;47.072;15.452;2023-01-16T16:54:13;9.80;55.60
2783;DHT22;1399;47.072;15.452;2023-01-16T16:56:45;9.70;55.50
2783;DHT22;1399;47.072;15.452;2023-01-16T16:59:30;9.80;55.60
2783;DHT22;1399;47.072;15.452;2023-01-16T17:01:59;9.70;55.40
2783;DHT22;1399;47.072;15.452;2023-01-16T17:04:34;9.70;55.40
2783;DHT22;1399;47.072;15.452;2023-01-16T17:07:00;9.70;55.40
2783;DHT22;1399;47.072;15.452;2023-01-16T17:09:26;9.70;55.40
2783;DHT22;1399;47.072;15.452;2023-01-16T17:11:59;9.70;55.40
2783;DHT22;1399;47.072;15.452;2023-01-16T17:14:25;9.70;55.40
2783;DHT22;1399;47.072;15.452;2023-01-16T17:16:51;9.70;55.50
2783;DHT22;1399;47.072;15.452;2023-01-16T17:19:20;9.70;55.50
2783;DHT22;1399;47.072;15.452;2023-01-16T17:21:47;9.70;55.50
2783;DHT22;1399;47.072;15.452;2023-01-16T17:24:18;9.70;55.50
2783;DHT22;1399;47.072;15.452;2023-01-16T17:26:45;9.70;55.60
2783;DHT22;1399;47.072;15.452;2023-01-16T17:29:12;9.60;55.50
2783;DHT22;1399;47.072;15.452;2023-01-16T17:31:39;9.60;55.50
2783;DHT22;1399;47.072;15.452;2023-01-16T17:34:12;9.70;55.50
2783;DHT22;1399;47.072;15.452;2023-01-16T17:36:38;9.70;55.50
2783;DHT22;1399;47.072;15.452;2023-01-16T17:39:05;9.60;55.50
2783;DHT22;1399;47.072;15.452;2023-01-16T17:41:34;9.60;55.40
2783;DHT22;1399;47.072;15.452;2023-01-16T17:44:25;9.60;55.40
2783;DHT22;1399;47.072;15.452;2023-01-16T17:47:10;9.60;55.30
2783;DHT22;1399;47.072;15.452;2023-01-16T17:49:37;9.60;55.30
2783;DHT22;1399;47.072;15.452;2023-01-16T17:52:21;9.60;55.30
2783;DHT22;1399;47.072;15.452;2023-01-16T17:54:47;9.60;55.20
2783;DHT22;1399;47.072;15.452;2023-01-16T17:57:31;9.60;55.30
2783;DHT22;1399;47.072;15.452;2023-01-16T17:59:58;9.60;55.40
2783;DHT22;1399;47.072;15.452;2023-01-16T18:02:24;9.60;55.20
2783;DHT22;1399;47.072;15.452;2023-01-16T18:04:50;9.60;55.20
2783;DHT22;1399;47.072;15.452;2023-01-16T18:07:17;9.60;55.10
2783;DHT22;1399;47.072;15.452;2023-01-16T18:09:43;9.60;55.10
2783;DHT22;1399;47.072;15.452;2023-01-16T18:12:09;9.60;55.10
2783;DHT22;1399;47.072;15.452;2023-01-16T18:14:54;9.60;55.10
2783;DHT22;1399;47.072;15.452;2023-01-16T18:17:38;9.50;55.10
2783;DHT22;1399;47.072;15.452;2023-01-16T18:20:05;9.60;55.30
2783;DHT22;1399;47.072;15.452;2023-01-16T18:22:33;9.50;55.30
2783;DHT22;1399;47.072;15.452;2023-01-16T18:25:03;9.60;55.30
2783;DHT22;1399;47.072;15.452;2023-01-16T18:27:30;9.50;55.60
2783;DHT22;1399;47.072;15.452;2023-01-16T18:29:56;9.50;55.20
2783;DHT22;1399;47.072;15.452;2023-01-16T18:32:21;9.50;55.10
2783;DHT22;1399;47.072;15.452;2023-01-16T18:34:51;9.50;55.10
2783;DHT22;1399;47.072;15.452;2023-01-16T18:37:23;9.50;55.10
2783;DHT22;1399;47.072;15.452;2023-01-16T18:39:50;9.50;55.20
2783;DHT22;1399;47.072;15.452;2023-01-16T18:42:34;9.50;55.20
2783;DHT22;1399;47.072;15.452;2023-01-16T18:45:20;9.50;55.10
2783;DHT22;1399;47.072;15.452;2023-01-16T18:48:04;9.50;55.00
2783;DHT22;1399;47.072;15.452;2023-01-16T18:50:48;9.50;54.80
2783;DHT22;1399;47.072;15.452;2023-01-16T18:53:40;9.40;54.80
2783;DHT22;1399;47.072;15.452;2023-01-16T18:56:28;9.40;54.80
2783;DHT22;1399;47.072;15.452;2023-01-16T18:59:19;9.50;54.70
2783;DHT22;1399;47.072;15.452;2023-01-16T19:04:38;9.40;54.60
2783;DHT22;1399;47.072;15.452;2023-01-16T19:07:09;9.40;54.60
2783;DHT22;1399;47.072;15.452;2023-01-16T19:09:36;9.40;54.50
2783;DHT22;1399;47.072;15.452;2023-01-16T19:12:03;9.40;54.50
2783;DHT22;1399;47.072;15.452;2023-01-16T19:14:33;9.40;54.50
2783;DHT22;1399;47.072;15.452;2023-01-16T19:17:00;9.40;54.50
2783;DHT22;1399;47.072;15.452;2023-01-16T19:19:26;9.40;54.40
2783;DHT22;1399;47.072;15.452;2023-01-16T19:21:56;9.40;54.40
2783;DHT22;1399;47.072;15.452;2023-01-16T19:24:23;9.40;54.40